^^
Saratoga-Weather Station Historical Data
Daily Summary for November 27, 2020 Units:  Both    English   Metric
Daily Weekly Monthly Yearly Custom
  High: Low: Average:
Temperature: 37.9 °F /  3.3 °C 30.4 °F /  -0.9 °C 34.2 °F /  1.2 °C
Dew Point: 37.4 °F /  3 °C 29.5 °F /  -1.4 °C 33.4 °F /  0.8 °C
Humidity: 98% 96% 97%
Wind Speed: 2mph /  3.2km/h - 0.1mph /  0.2km/h
Wind Gust: 4mph /  6.4km/h - -
Wind- - ENE
Pressure: 30.1 in /  1020.7 hPa 30.1 in /  1018.3 hPa -
Precipitation: 0.01 in /  0.2 mm    
Historical Graphs
 
 
Tabular Data for November 27, 2020
Time Temperature Dew Point Pressure Wind Wind Speed Wind Gust Humidity Rainfall Rate (Hourly) solar
00:01 35.1 °F /  1.7 °C 34 °F /  1.1 °C 30.1in /  1020.7hPa Calm     96% 0in /  0.0mm 0 W/m2
00:06 35.1 °F /  1.7 °C 34 °F /  1.1 °C 30.1in /  1020.3hPa Calm     96% 0in /  0.0mm 0 W/m2
00:11 34.9 °F /  1.6 °C 33.8 °F /  1 °C 30.1in /  1020.7hPa Calm     96% 0in /  0.0mm 0 W/m2
00:16 34.9 °F /  1.6 °C 33.8 °F /  1 °C 30.1in /  1020.3hPa Calm     96% 0in /  0.0mm 0 W/m2
00:21 34.9 °F /  1.6 °C 33.8 °F /  1 °C 30.1in /  1020.3hPa Calm     96% 0in /  0.0mm 0 W/m2
00:26 34.9 °F /  1.6 °C 33.8 °F /  1 °C 30.1in /  1020.7hPa Calm     96% 0in /  0.0mm 0 W/m2
00:31 34.9 °F /  1.6 °C 33.8 °F /  1 °C 30.1in /  1020.7hPa Calm     96% 0in /  0.0mm 0 W/m2
00:36 34.7 °F /  1.5 °C 33.6 °F /  0.9 °C 30.1in /  1020.3hPa Calm     96% 0in /  0.0mm 0 W/m2
00:41 34.7 °F /  1.5 °C 33.6 °F /  0.9 °C 30.1in /  1020.3hPa Calm     96% 0in /  0.0mm 0 W/m2
00:46 34.5 °F /  1.4 °C 33.4 °F /  0.8 °C 30.1in /  1020.3hPa Calm     96% 0in /  0.0mm 0 W/m2
00:51 34.5 °F /  1.4 °C 33.4 °F /  0.8 °C 30.1in /  1020.3hPa Calm     96% 0in /  0.0mm 0 W/m2
00:56 34.3 °F /  1.3 °C 33.3 °F /  0.7 °C 30.1in /  1020.3hPa Calm     96% 0in /  0.0mm 0 W/m2
01:01 34.3 °F /  1.3 °C 33.3 °F /  0.7 °C 30.1in /  1020.3hPa Calm     96% 0in /  0.0mm 0 W/m2
01:06 34.2 °F /  1.2 °C 33.1 °F /  0.6 °C 30.1in /  1020.3hPa Calm     96% 0in /  0.0mm 0 W/m2
01:11 34.2 °F /  1.2 °C 33.1 °F /  0.6 °C 30.1in /  1020.3hPa Calm     96% 0in /  0.0mm 0 W/m2
01:16 34.2 °F /  1.2 °C 33.1 °F /  0.6 °C 30.1in /  1020.0hPa Calm     96% 0in /  0.0mm 0 W/m2
01:21 34 °F /  1.1 °C 32.9 °F /  0.5 °C 30.1in /  1020.0hPa Calm     96% 0in /  0.0mm 0 W/m2
01:26 34 °F /  1.1 °C 32.9 °F /  0.5 °C 30.1in /  1020.0hPa Calm     96% 0in /  0.0mm 0 W/m2
01:31 34 °F /  1.1 °C 32.9 °F /  0.5 °C 30.1in /  1020.0hPa Calm     96% 0in /  0.0mm 0 W/m2
01:36 33.8 °F /  1 °C 32.7 °F /  0.4 °C 30.1in /  1020.0hPa Calm     96% 0in /  0.0mm 0 W/m2
01:41 33.6 °F /  0.9 °C 32.5 °F /  0.3 °C 30.1in /  1020.0hPa Calm     96% 0in /  0.0mm 0 W/m2
01:46 33.6 °F /  0.9 °C 32.5 °F /  0.3 °C 30.1in /  1020.0hPa Calm     96% 0in /  0.0mm 0 W/m2
01:51 33.6 °F /  0.9 °C 32.5 °F /  0.3 °C 30.1in /  1020.0hPa Calm     96% 0in /  0.0mm 0 W/m2
01:56 33.6 °F /  0.9 °C 32.5 °F /  0.3 °C 30.1in /  1020.0hPa Calm     96% 0in /  0.0mm 0 W/m2
02:01 33.6 °F /  0.9 °C 32.9 °F /  0.5 °C 30.1in /  1020.0hPa Calm     97% 0in /  0.0mm 0 W/m2
02:06 33.6 °F /  0.9 °C 32.9 °F /  0.5 °C 30.1in /  1020.0hPa Calm     97% 0in /  0.0mm 0 W/m2
02:11 33.6 °F /  0.9 °C 32.9 °F /  0.5 °C 30.1in /  1020.0hPa Calm     97% 0in /  0.0mm 0 W/m2
02:16 33.4 °F /  0.8 °C 32.4 °F /  0.2 °C 30.1in /  1020.0hPa Calm     96% 0in /  0.0mm 0 W/m2
02:21 33.4 °F /  0.8 °C 32.4 °F /  0.2 °C 30.1in /  1020.0hPa Calm     96% 0in /  0.0mm 0 W/m2
02:26 33.3 °F /  0.7 °C 32.2 °F /  0.1 °C 30.1in /  1020.0hPa Calm     96% 0in /  0.0mm 0 W/m2
02:31 33.1 °F /  0.6 °C 32 °F /  0 °C 30.1in /  1020.0hPa Calm     96% 0in /  0.0mm 0 W/m2
02:36 32.9 °F /  0.5 °C 31.8 °F /  -0.1 °C 30.1in /  1020.0hPa Calm     96% 0in /  0.0mm 0 W/m2
02:41 32.7 °F /  0.4 °C 31.6 °F /  -0.2 °C 30.1in /  1020.0hPa Calm     96% 0in /  0.0mm 0 W/m2
02:46 32.7 °F /  0.4 °C 31.6 °F /  -0.2 °C 30.1in /  1020.0hPa Calm     96% 0in /  0.0mm 0 W/m2
02:51 32.5 °F /  0.3 °C 31.5 °F /  -0.3 °C 30.1in /  1020.0hPa Calm     96% 0in /  0.0mm 0 W/m2
02:56 32.5 °F /  0.3 °C 31.5 °F /  -0.3 °C 30.1in /  1020.0hPa Calm     96% 0in /  0.0mm 0 W/m2
03:01 32.5 °F /  0.3 °C 31.5 °F /  -0.3 °C 30.1in /  1020.0hPa Calm     96% 0in /  0.0mm 0 W/m2
03:06 32.4 °F /  0.2 °C 31.3 °F /  -0.4 °C 30.1in /  1020.0hPa Calm     96% 0in /  0.0mm 0 W/m2
03:11 32.4 °F /  0.2 °C 31.3 °F /  -0.4 °C 30.1in /  1020.0hPa Calm     96% 0in /  0.0mm 0 W/m2
03:16 32.4 °F /  0.2 °C 31.6 °F /  -0.2 °C 30.1in /  1020.0hPa Calm     97% 0in /  0.0mm 0 W/m2
03:21 32.4 °F /  0.2 °C 31.3 °F /  -0.4 °C 30.1in /  1020.0hPa Calm     96% 0in /  0.0mm 0 W/m2
03:26 32.4 °F /  0.2 °C 31.3 °F /  -0.4 °C 30.1in /  1020.0hPa Calm     96% 0in /  0.0mm 0 W/m2
03:31 32.2 °F /  0.1 °C 31.1 °F /  -0.5 °C 30.1in /  1020.0hPa Calm     96% 0in /  0.0mm 0 W/m2
03:36 32.2 °F /  0.1 °C 31.5 °F /  -0.3 °C 30.1in /  1020.0hPa Calm     97% 0in /  0.0mm 0 W/m2
03:41 32 °F /  0 °C 31.3 °F /  -0.4 °C 30.1in /  1020.0hPa Calm     97% 0in /  0.0mm 0 W/m2
03:46 32 °F /  0 °C 31.3 °F /  -0.4 °C 30.1in /  1020.0hPa Calm     97% 0in /  0.0mm 0 W/m2
03:51 32 °F /  0 °C 31.3 °F /  -0.4 °C 30.1in /  1019.6hPa Calm     97% 0in /  0.0mm 0 W/m2
03:56 32.2 °F /  0.1 °C 31.5 °F /  -0.3 °C 30.1in /  1019.6hPa Calm     97% 0in /  0.0mm 0 W/m2
04:01 32 °F /  0 °C 31.3 °F /  -0.4 °C 30.1in /  1019.6hPa Calm     97% 0in /  0.0mm 0 W/m2
04:06 32 °F /  0 °C 31.3 °F /  -0.4 °C 30.1in /  1019.6hPa Calm     97% 0in /  0.0mm 0 W/m2
04:11 32.2 °F /  0.1 °C 31.5 °F /  -0.3 °C 30.1in /  1019.6hPa Calm     97% 0in /  0.0mm 0 W/m2
04:16 32.2 °F /  0.1 °C 31.5 °F /  -0.3 °C 30.1in /  1019.6hPa Calm     97% 0in /  0.0mm 0 W/m2
04:21 32.2 °F /  0.1 °C 31.5 °F /  -0.3 °C 30.1in /  1019.6hPa Calm     97% 0in /  0.0mm 0 W/m2
04:26 32.4 °F /  0.2 °C 31.6 °F /  -0.2 °C 30.1in /  1019.6hPa Calm     97% 0in /  0.0mm 0 W/m2
04:31 32.4 °F /  0.2 °C 31.6 °F /  -0.2 °C 30.1in /  1019.6hPa Calm     97% 0in /  0.0mm 0 W/m2
04:36 32.4 °F /  0.2 °C 31.6 °F /  -0.2 °C 30.1in /  1019.6hPa Calm     97% 0in /  0.0mm 0 W/m2
04:42 32.4 °F /  0.2 °C 31.6 °F /  -0.2 °C 30.1in /  1019.6hPa Calm     97% 0in /  0.0mm 0 W/m2
04:47 32.4 °F /  0.2 °C 31.6 °F /  -0.2 °C 30.1in /  1019.6hPa Calm     97% 0in /  0.0mm 0 W/m2
04:52 32.2 °F /  0.1 °C 31.5 °F /  -0.3 °C 30.1in /  1019.6hPa Calm     97% 0in /  0.0mm 0 W/m2
04:57 32.2 °F /  0.1 °C 31.5 °F /  -0.3 °C 30.1in /  1019.6hPa Calm     97% 0in /  0.0mm 0 W/m2
05:02 32 °F /  0 °C 31.3 °F /  -0.4 °C 30.1in /  1019.6hPa Calm     97% 0in /  0.0mm 0 W/m2
05:07 31.8 °F /  -0.1 °C 31.1 °F /  -0.5 °C 30.1in /  1019.6hPa Calm     97% 0in /  0.0mm 0 W/m2
05:12 31.6 °F /  -0.2 °C 30.6 °F /  -0.8 °C 30.1in /  1019.6hPa Calm     96% 0in /  0.0mm 0 W/m2
05:17 31.6 °F /  -0.2 °C 30.9 °F /  -0.6 °C 30.1in /  1019.6hPa Calm     97% 0in /  0.0mm 0 W/m2
05:22 31.5 °F /  -0.3 °C 30.7 °F /  -0.7 °C 30.1in /  1019.6hPa Calm     97% 0in /  0.0mm 0 W/m2
05:27 31.5 °F /  -0.3 °C 30.7 °F /  -0.7 °C 30.1in /  1019.6hPa Calm     97% 0in /  0.0mm 0 W/m2
05:32 31.3 °F /  -0.4 °C 30.2 °F /  -1 °C 30.1in /  1019.6hPa Calm     96% 0in /  0.0mm 0 W/m2
05:37 31.1 °F /  -0.5 °C 30 °F /  -1.1 °C 30.1in /  1019.6hPa Calm     96% 0in /  0.0mm 0 W/m2
05:42 30.9 °F /  -0.6 °C 29.8 °F /  -1.2 °C 30.1in /  1020.0hPa Calm     96% 0in /  0.0mm 0 W/m2
05:47 30.9 °F /  -0.6 °C 30.2 °F /  -1 °C 30.1in /  1020.0hPa Calm     97% 0in /  0.0mm 0 W/m2
05:52 30.9 °F /  -0.6 °C 30.2 °F /  -1 °C 30.1in /  1020.0hPa Calm     97% 0in /  0.0mm 0 W/m2
05:57 30.7 °F /  -0.7 °C 29.7 °F /  -1.3 °C 30.1in /  1019.6hPa Calm     96% 0in /  0.0mm 0 W/m2
06:02 30.7 °F /  -0.7 °C 29.7 °F /  -1.3 °C 30.1in /  1019.6hPa Calm     96% 0in /  0.0mm 0 W/m2
06:07 30.7 °F /  -0.7 °C 29.7 °F /  -1.3 °C 30.1in /  1019.6hPa Calm     96% 0in /  0.0mm 0 W/m2
06:12 30.6 °F /  -0.8 °C 29.5 °F /  -1.4 °C 30.1in /  1019.6hPa Calm     96% 0in /  0.0mm 0 W/m2
06:17 30.6 °F /  -0.8 °C 29.8 °F /  -1.2 °C 30.1in /  1019.6hPa Calm     97% 0in /  0.0mm 0 W/m2
06:22 30.6 °F /  -0.8 °C 29.8 °F /  -1.2 °C 30.1in /  1019.6hPa Calm     97% 0in /  0.0mm 0 W/m2
06:27 30.6 °F /  -0.8 °C 29.8 °F /  -1.2 °C 30.1in /  1019.6hPa Calm     97% 0in /  0.0mm 0 W/m2
06:32 30.6 °F /  -0.8 °C 29.8 °F /  -1.2 °C 30.1in /  1019.6hPa Calm     97% 0in /  0.0mm 0 W/m2
06:37 30.6 °F /  -0.8 °C 29.8 °F /  -1.2 °C 30.1in /  1019.6hPa Calm     97% 0in /  0.0mm 0 W/m2
06:42 30.7 °F /  -0.7 °C 30 °F /  -1.1 °C 30.1in /  1019.6hPa Calm     97% 0in /  0.0mm 0 W/m2
06:47 30.7 °F /  -0.7 °C 30 °F /  -1.1 °C 30.1in /  1019.6hPa Calm     97% 0in /  0.0mm 0 W/m2
06:52 30.7 °F /  -0.7 °C 30 °F /  -1.1 °C 30.1in /  1019.6hPa Calm     97% 0in /  0.0mm 0 W/m2
06:57 30.7 °F /  -0.7 °C 30 °F /  -1.1 °C 30.1in /  1019.6hPa Calm     97% 0in /  0.0mm 0 W/m2
07:02 30.7 °F /  -0.7 °C 30 °F /  -1.1 °C 30.1in /  1019.6hPa Calm     97% 0in /  0.0mm 0 W/m2
07:07 30.7 °F /  -0.7 °C 30 °F /  -1.1 °C 30.1in /  1020.0hPa Calm     97% 0in /  0.0mm 0 W/m2
07:12 30.7 °F /  -0.7 °C 30 °F /  -1.1 °C 30.1in /  1020.0hPa Calm     97% 0in /  0.0mm 0 W/m2
07:17 30.7 °F /  -0.7 °C 30 °F /  -1.1 °C 30.1in /  1020.0hPa Calm     97% 0in /  0.0mm 0 W/m2
07:22 30.7 °F /  -0.7 °C 30 °F /  -1.1 °C 30.1in /  1020.0hPa Calm     97% 0in /  0.0mm 0 W/m2
07:27 30.9 °F /  -0.6 °C 30.2 °F /  -1 °C 30.1in /  1020.0hPa Calm     97% 0in /  0.0mm 0 W/m2
07:32 30.7 °F /  -0.7 °C 30 °F /  -1.1 °C 30.1in /  1020.0hPa Calm     97% 0in /  0.0mm 0 W/m2
07:37 30.7 °F /  -0.7 °C 30 °F /  -1.1 °C 30.1in /  1020.0hPa Calm   1mph /  1.6km/h 97% 0in /  0.0mm 0 W/m2
07:42 30.7 °F /  -0.7 °C 30 °F /  -1.1 °C 30.1in /  1020.0hPa Calm   1mph /  1.6km/h 97% 0in /  0.0mm 0 W/m2
07:47 30.7 °F /  -0.7 °C 30 °F /  -1.1 °C 30.1in /  1020.0hPa Calm   1mph /  1.6km/h 97% 0in /  0.0mm 0 W/m2
07:52 30.6 °F /  -0.8 °C 29.8 °F /  -1.2 °C 30.1in /  1020.0hPa East 0.9mph /  1.4km/h 1mph /  1.6km/h 97% 0in /  0.0mm 0 W/m2
07:57 30.6 °F /  -0.8 °C 29.8 °F /  -1.2 °C 30.1in /  1020.0hPa East 0.9mph /  1.4km/h 2mph /  3.2km/h 97% 0in /  0.0mm 0 W/m2
08:02 30.4 °F /  -0.9 °C 29.7 °F /  -1.3 °C 30.1in /  1020.0hPa Calm   1mph /  1.6km/h 97% 0in /  0.0mm 0 W/m2
08:07 30.4 °F /  -0.9 °C 29.7 °F /  -1.3 °C 30.1in /  1020.0hPa Calm     97% 0in /  0.0mm 0 W/m2
08:12 30.4 °F /  -0.9 °C 29.7 °F /  -1.3 °C 30.1in /  1020.0hPa Calm   1mph /  1.6km/h 97% 0in /  0.0mm 5 W/m2
08:17 30.4 °F /  -0.9 °C 29.7 °F /  -1.3 °C 30.1in /  1020.0hPa Calm     97% 0in /  0.0mm 7 W/m2
08:22 30.4 °F /  -0.9 °C 29.7 °F /  -1.3 °C 30.1in /  1020.0hPa Calm     97% 0in /  0.0mm 9 W/m2
08:27 30.4 °F /  -0.9 °C 29.7 °F /  -1.3 °C 30.1in /  1020.0hPa Calm     97% 0in /  0.0mm 12 W/m2
08:32 30.4 °F /  -0.9 °C 29.7 °F /  -1.3 °C 30.1in /  1020.0hPa Calm     97% 0in /  0.0mm 14 W/m2
08:37 30.6 °F /  -0.8 °C 29.8 °F /  -1.2 °C 30.1in /  1020.0hPa Calm     97% 0in /  0.0mm 19 W/m2
08:42 30.6 °F /  -0.8 °C 29.8 °F /  -1.2 °C 30.1in /  1020.0hPa Calm     97% 0in /  0.0mm 23 W/m2
08:47 30.6 °F /  -0.8 °C 29.8 °F /  -1.2 °C 30.1in /  1020.0hPa East 0.9mph /  1.4km/h 1mph /  1.6km/h 97% 0in /  0.0mm 28 W/m2
08:52 30.6 °F /  -0.8 °C 29.8 °F /  -1.2 °C 30.1in /  1020.0hPa Calm     97% 0in /  0.0mm 30 W/m2
08:57 30.7 °F /  -0.7 °C 30 °F /  -1.1 °C 30.1in /  1020.0hPa East 0.9mph /  1.4km/h 2mph /  3.2km/h 97% 0in /  0.0mm 32 W/m2
09:02 30.7 °F /  -0.7 °C 30 °F /  -1.1 °C 30.1in /  1020.0hPa East 0.9mph /  1.4km/h 1mph /  1.6km/h 97% 0in /  0.0mm 33 W/m2
09:07 30.7 °F /  -0.7 °C 30 °F /  -1.1 °C 30.1in /  1020.0hPa Calm   1mph /  1.6km/h 97% 0in /  0.0mm 39 W/m2
09:12 30.9 °F /  -0.6 °C 30.2 °F /  -1 °C 30.1in /  1020.0hPa Calm     97% 0in /  0.0mm 42 W/m2
09:17 30.9 °F /  -0.6 °C 30.2 °F /  -1 °C 30.1in /  1020.0hPa Calm     97% 0in /  0.0mm 46 W/m2
09:22 31.1 °F /  -0.5 °C 30.4 °F /  -0.9 °C 30.1in /  1020.0hPa Calm     97% 0in /  0.0mm 44 W/m2
09:28 31.1 °F /  -0.5 °C 30.4 °F /  -0.9 °C 30.1in /  1020.0hPa Calm     97% 0in /  0.0mm 39 W/m2
09:33 31.3 °F /  -0.4 °C 30.6 °F /  -0.8 °C 30.1in /  1020.0hPa Calm   1mph /  1.6km/h 97% 0in /  0.0mm 44 W/m2
09:38 31.3 °F /  -0.4 °C 30.6 °F /  -0.8 °C 30.1in /  1020.0hPa Calm   1mph /  1.6km/h 97% 0in /  0.0mm 53 W/m2
09:43 31.3 °F /  -0.4 °C 30.6 °F /  -0.8 °C 30.1in /  1020.0hPa East 0.9mph /  1.4km/h 1mph /  1.6km/h 97% 0in /  0.0mm 56 W/m2
09:48 31.5 °F /  -0.3 °C 30.7 °F /  -0.7 °C 30.1in /  1020.0hPa East 0.9mph /  1.4km/h 2mph /  3.2km/h 97% 0in /  0.0mm 54 W/m2
09:53 31.5 °F /  -0.3 °C 30.7 °F /  -0.7 °C 30.1in /  1020.0hPa Calm   1mph /  1.6km/h 97% 0in /  0.0mm 58 W/m2
09:58 31.5 °F /  -0.3 °C 30.7 °F /  -0.7 °C 30.1in /  1020.3hPa East 2mph /  3.2km/h 2mph /  3.2km/h 97% 0in /  0.0mm 62 W/m2
10:03 31.5 °F /  -0.3 °C 30.7 °F /  -0.7 °C 30.1in /  1020.3hPa East 0.9mph /  1.4km/h 2mph /  3.2km/h 97% 0in /  0.0mm 58 W/m2
10:08 31.3 °F /  -0.4 °C 30.6 °F /  -0.8 °C 30.1in /  1020.3hPa Calm   2mph /  3.2km/h 97% 0in /  0.0mm 63 W/m2
10:13 31.3 °F /  -0.4 °C 30.6 °F /  -0.8 °C 30.1in /  1020.3hPa Calm   1mph /  1.6km/h 97% 0in /  0.0mm 70 W/m2
10:18 31.3 °F /  -0.4 °C 30.6 °F /  -0.8 °C 30.1in /  1020.3hPa Calm   2mph /  3.2km/h 97% 0in /  0.0mm 65 W/m2
10:23 31.3 °F /  -0.4 °C 30.6 °F /  -0.8 °C 30.1in /  1020.3hPa Calm   2mph /  3.2km/h 97% 0in /  0.0mm 70 W/m2
10:28 31.5 °F /  -0.3 °C 30.7 °F /  -0.7 °C 30.1in /  1020.3hPa NE 0.9mph /  1.4km/h 1mph /  1.6km/h 97% 0in /  0.0mm 63 W/m2
10:33 31.5 °F /  -0.3 °C 30.7 °F /  -0.7 °C 30.1in /  1020.3hPa Calm     97% 0in /  0.0mm 65 W/m2
10:38 31.5 °F /  -0.3 °C 30.7 °F /  -0.7 °C 30.1in /  1020.3hPa Calm     97% 0in /  0.0mm 74 W/m2
10:43 31.6 °F /  -0.2 °C 30.9 °F /  -0.6 °C 30.1in /  1020.3hPa Calm   1mph /  1.6km/h 97% 0in /  0.0mm 72 W/m2
10:48 31.6 °F /  -0.2 °C 30.9 °F /  -0.6 °C 30.1in /  1020.0hPa Calm   1mph /  1.6km/h 97% 0in /  0.0mm 70 W/m2
10:53 31.6 °F /  -0.2 °C 30.9 °F /  -0.6 °C 30.1in /  1020.0hPa NNE 0.9mph /  1.4km/h 1mph /  1.6km/h 97% 0.01in /  0.2mm 72 W/m2
10:58 31.8 °F /  -0.1 °C 31.1 °F /  -0.5 °C 30.1in /  1020.0hPa NNE 2mph /  3.2km/h 2mph /  3.2km/h 97% 0.01in /  0.2mm 67 W/m2
11:03 31.8 °F /  -0.1 °C 31.1 °F /  -0.5 °C 30.1in /  1020.0hPa Calm   1mph /  1.6km/h 97% 0.01in /  0.2mm 81 W/m2
11:08 32 °F /  0 °C 31.3 °F /  -0.4 °C 30.1in /  1020.0hPa NNE 2mph /  3.2km/h 2mph /  3.2km/h 97% 0.01in /  0.2mm 88 W/m2
11:13 32.2 °F /  0.1 °C 31.5 °F /  -0.3 °C 30.1in /  1020.0hPa Calm     97% 0.01in /  0.2mm 79 W/m2
11:18 32.4 °F /  0.2 °C 31.6 °F /  -0.2 °C 30.1in /  1019.6hPa North 0.9mph /  1.4km/h 1mph /  1.6km/h 97% 0.01in /  0.2mm 79 W/m2
11:23 32.5 °F /  0.3 °C 31.8 °F /  -0.1 °C 30.1in /  1019.6hPa Calm     97% 0.01in /  0.2mm 93 W/m2
11:28 32.5 °F /  0.3 °C 31.8 °F /  -0.1 °C 30.1in /  1019.6hPa Calm     97% 0.01in /  0.2mm 98 W/m2
11:33 32.7 °F /  0.4 °C 32 °F /  0 °C 30.1in /  1019.6hPa Calm     97% 0.01in /  0.2mm 84 W/m2
11:38 33.1 °F /  0.6 °C 32.4 °F /  0.2 °C 30.1in /  1019.6hPa Calm     97% 0.01in /  0.2mm 86 W/m2
11:43 33.3 °F /  0.7 °C 32.5 °F /  0.3 °C 30.1in /  1019.6hPa Calm   1mph /  1.6km/h 97% 0.01in /  0.2mm 84 W/m2
11:48 33.4 °F /  0.8 °C 32.7 °F /  0.4 °C 30.1in /  1019.6hPa Calm   1mph /  1.6km/h 97% 0.01in /  0.2mm 76 W/m2
11:53 33.4 °F /  0.8 °C 32.7 °F /  0.4 °C 30.1in /  1019.3hPa ENE 0.9mph /  1.4km/h 3mph /  4.8km/h 97% 0in /  0.0mm 86 W/m2
11:58 33.4 °F /  0.8 °C 32.7 °F /  0.4 °C 30.1in /  1019.6hPa ENE 0.9mph /  1.4km/h 2mph /  3.2km/h 97% 0in /  0.0mm 91 W/m2
12:03 33.4 °F /  0.8 °C 32.7 °F /  0.4 °C 30.1in /  1019.3hPa NE 0.9mph /  1.4km/h 1mph /  1.6km/h 97% 0in /  0.0mm 95 W/m2
12:08 33.4 °F /  0.8 °C 32.7 °F /  0.4 °C 30.1in /  1019.3hPa NE 0.9mph /  1.4km/h 1mph /  1.6km/h 97% 0in /  0.0mm 88 W/m2
12:13 33.4 °F /  0.8 °C 32.7 °F /  0.4 °C 30.1in /  1019.3hPa Calm   1mph /  1.6km/h 97% 0in /  0.0mm 93 W/m2
12:18 33.6 °F /  0.9 °C 32.9 °F /  0.5 °C 30.1in /  1019.3hPa Calm   2mph /  3.2km/h 97% 0in /  0.0mm 100 W/m2
12:23 33.8 °F /  1 °C 33.1 °F /  0.6 °C 30.1in /  1019.3hPa Calm     97% 0in /  0.0mm 100 W/m2
12:28 34 °F /  1.1 °C 33.3 °F /  0.7 °C 30.1in /  1019.0hPa East 2mph /  3.2km/h 3mph /  4.8km/h 97% 0in /  0.0mm 97 W/m2
12:33 34.2 °F /  1.2 °C 33.4 °F /  0.8 °C 30.1in /  1019.0hPa Calm   1mph /  1.6km/h 97% 0in /  0.0mm 91 W/m2
12:38 34.2 °F /  1.2 °C 33.4 °F /  0.8 °C 30.1in /  1019.0hPa NE 0.9mph /  1.4km/h 3mph /  4.8km/h 97% 0in /  0.0mm 79 W/m2
12:43 34.2 °F /  1.2 °C 33.4 °F /  0.8 °C 30.1in /  1019.0hPa Calm   1mph /  1.6km/h 97% 0in /  0.0mm 79 W/m2
12:48 34.3 °F /  1.3 °C 33.6 °F /  0.9 °C 30.1in /  1019.0hPa Calm   4mph /  6.4km/h 97% 0in /  0.0mm 90 W/m2
12:53 34.5 °F /  1.4 °C 33.8 °F /  1 °C 30.1in /  1019.0hPa NE 0.9mph /  1.4km/h 1mph /  1.6km/h 97% 0in /  0.0mm 84 W/m2
12:58 34.5 °F /  1.4 °C 33.8 °F /  1 °C 30.1in /  1019.0hPa NE 0.9mph /  1.4km/h 2mph /  3.2km/h 97% 0in /  0.0mm 81 W/m2
13:03 34.5 °F /  1.4 °C 34 °F /  1.1 °C 30.1in /  1019.0hPa NE 0.9mph /  1.4km/h 1mph /  1.6km/h 98% 0in /  0.0mm 77 W/m2
13:08 34.7 °F /  1.5 °C 34.2 °F /  1.2 °C 30.1in /  1019.0hPa NNE 0.9mph /  1.4km/h 1mph /  1.6km/h 98% 0in /  0.0mm 70 W/m2
13:13 34.7 °F /  1.5 °C 34.2 °F /  1.2 °C 30.1in /  1019.0hPa Calm   2mph /  3.2km/h 98% 0in /  0.0mm 81 W/m2
13:18 34.9 °F /  1.6 °C 34.3 °F /  1.3 °C 30.1in /  1019.0hPa Calm   2mph /  3.2km/h 98% 0in /  0.0mm 76 W/m2
13:23 35.1 °F /  1.7 °C 34.3 °F /  1.3 °C 30.1in /  1019.0hPa Calm     97% 0in /  0.0mm 77 W/m2
13:28 35.1 °F /  1.7 °C 34.3 °F /  1.3 °C 30.1in /  1019.0hPa Calm   2mph /  3.2km/h 97% 0in /  0.0mm 74 W/m2
13:33 35.2 °F /  1.8 °C 34.7 °F /  1.5 °C 30.1in /  1019.0hPa Calm   2mph /  3.2km/h 98% 0in /  0.0mm 81 W/m2
13:38 35.4 °F /  1.9 °C 34.9 °F /  1.6 °C 30.1in /  1019.0hPa Calm   1mph /  1.6km/h 98% 0in /  0.0mm 77 W/m2
13:43 35.4 °F /  1.9 °C 34.9 °F /  1.6 °C 30.1in /  1019.0hPa Calm   1mph /  1.6km/h 98% 0in /  0.0mm 77 W/m2
13:48 35.4 °F /  1.9 °C 34.7 °F /  1.5 °C 30.1in /  1019.0hPa Calm   1mph /  1.6km/h 97% 0in /  0.0mm 77 W/m2
13:53 35.6 °F /  2 °C 34.9 °F /  1.6 °C 30.1in /  1018.6hPa Calm   2mph /  3.2km/h 97% 0in /  0.0mm 28 W/m2
13:58 35.6 °F /  2 °C 34.9 °F /  1.6 °C 30.1in /  1018.6hPa NE 2mph /  3.2km/h 2mph /  3.2km/h 97% 0in /  0.0mm 25 W/m2
14:03 35.6 °F /  2 °C 34.9 °F /  1.6 °C 30.1in /  1018.6hPa Calm   1mph /  1.6km/h 97% 0in /  0.0mm 37 W/m2
14:08 35.6 °F /  2 °C 34.9 °F /  1.6 °C 30.1in /  1018.6hPa Calm     97% 0in /  0.0mm 44 W/m2
14:13 35.8 °F /  2.1 °C 35.1 °F /  1.7 °C 30.1in /  1018.6hPa Calm     97% 0in /  0.0mm 51 W/m2
14:18 36 °F /  2.2 °C 35.4 °F /  1.9 °C 30.1in /  1018.6hPa Calm   1mph /  1.6km/h 98% 0in /  0.0mm 51 W/m2
14:23 36 °F /  2.2 °C 35.4 °F /  1.9 °C 30.1in /  1018.6hPa Calm     98% 0in /  0.0mm 49 W/m2
14:28 36 °F /  2.2 °C 35.4 °F /  1.9 °C 30.1in /  1018.6hPa Calm   1mph /  1.6km/h 98% 0in /  0.0mm 46 W/m2
14:33 36.1 °F /  2.3 °C 35.6 °F /  2 °C 30.1in /  1018.6hPa Calm   1mph /  1.6km/h 98% 0in /  0.0mm 47 W/m2
14:38 36.1 °F /  2.3 °C 35.4 °F /  1.9 °C 30.1in /  1018.6hPa Calm     97% 0in /  0.0mm 46 W/m2
14:43 36.3 °F /  2.4 °C 35.6 °F /  2 °C 30.1in /  1018.6hPa Calm     97% 0in /  0.0mm 46 W/m2
14:48 36.3 °F /  2.4 °C 35.8 °F /  2.1 °C 30.1in /  1018.6hPa Calm   2mph /  3.2km/h 98% 0in /  0.0mm 44 W/m2
14:53 36.7 °F /  2.6 °C 36.1 °F /  2.3 °C 30.1in /  1018.6hPa Calm     98% 0in /  0.0mm 39 W/m2
14:58 36.7 °F /  2.6 °C 36.1 °F /  2.3 °C 30.1in /  1018.6hPa Calm   2mph /  3.2km/h 98% 0in /  0.0mm 39 W/m2
15:03 36.7 °F /  2.6 °C 36.1 °F /  2.3 °C 30.1in /  1018.6hPa Calm   1mph /  1.6km/h 98% 0in /  0.0mm 37 W/m2
15:08 36.9 °F /  2.7 °C 36.3 °F /  2.4 °C 30.1in /  1018.6hPa Calm   2mph /  3.2km/h 98% 0in /  0.0mm 37 W/m2
15:14 36.9 °F /  2.7 °C 36.3 °F /  2.4 °C 30.1in /  1018.6hPa Calm     98% 0in /  0.0mm 30 W/m2
15:19 37 °F /  2.8 °C 36.5 °F /  2.5 °C 30.1in /  1018.6hPa Calm     98% 0in /  0.0mm 26 W/m2
15:24 37 °F /  2.8 °C 36.5 °F /  2.5 °C 30.1in /  1018.6hPa Calm   2mph /  3.2km/h 98% 0in /  0.0mm 26 W/m2
15:29 37 °F /  2.8 °C 36.5 °F /  2.5 °C 30.1in /  1018.6hPa Calm     98% 0in /  0.0mm 23 W/m2
15:34 37.2 °F /  2.9 °C 36.7 °F /  2.6 °C 30.1in /  1018.6hPa Calm   2mph /  3.2km/h 98% 0in /  0.0mm 19 W/m2
15:39 37.2 °F /  2.9 °C 36.7 °F /  2.6 °C 30.1in /  1018.6hPa Calm   1mph /  1.6km/h 98% 0in /  0.0mm 18 W/m2
15:44 37.4 °F /  3 °C 36.9 °F /  2.7 °C 30.1in /  1018.6hPa Calm     98% 0in /  0.0mm 18 W/m2
15:49 37.4 °F /  3 °C 36.9 °F /  2.7 °C 30.1in /  1018.3hPa Calm     98% 0in /  0.0mm 16 W/m2
15:54 37.6 °F /  3.1 °C 37 °F /  2.8 °C 30.1in /  1018.6hPa Calm     98% 0in /  0.0mm 14 W/m2
15:59 37.6 °F /  3.1 °C 37 °F /  2.8 °C 30.1in /  1018.3hPa Calm     98% 0in /  0.0mm 12 W/m2
16:04 37.6 °F /  3.1 °C 37 °F /  2.8 °C 30.1in /  1018.3hPa Calm     98% 0in /  0.0mm 12 W/m2
16:09 37.8 °F /  3.2 °C 37.2 °F /  2.9 °C 30.1in /  1018.3hPa Calm   1mph /  1.6km/h 98% 0in /  0.0mm 9 W/m2
16:14 37.8 °F /  3.2 °C 37.2 °F /  2.9 °C 30.1in /  1018.3hPa Calm   2mph /  3.2km/h 98% 0in /  0.0mm 7 W/m2
16:19 37.8 °F /  3.2 °C 37.2 °F /  2.9 °C 30.1in /  1018.3hPa NE 0.9mph /  1.4km/h 1mph /  1.6km/h 98% 0in /  0.0mm 7 W/m2
16:24 37.8 °F /  3.2 °C 37.2 °F /  2.9 °C 30.1in /  1018.3hPa Calm   2mph /  3.2km/h 98% 0in /  0.0mm 7 W/m2
16:29 37.8 °F /  3.2 °C 37.2 °F /  2.9 °C 30.1in /  1018.3hPa Calm     98% 0in /  0.0mm 5 W/m2
16:34 37.9 °F /  3.3 °C 37.4 °F /  3 °C 30.1in /  1018.3hPa Calm     98% 0in /  0.0mm 0 W/m2
16:39 37.9 °F /  3.3 °C 37.4 °F /  3 °C 30.1in /  1018.3hPa Calm     98% 0in /  0.0mm 0 W/m2
16:44 37.9 °F /  3.3 °C 37.4 °F /  3 °C 30.1in /  1018.3hPa Calm     98% 0in /  0.0mm 0 W/m2
16:49 37.9 °F /  3.3 °C 37.4 °F /  3 °C 30.1in /  1018.3hPa Calm     98% 0in /  0.0mm 0 W/m2
16:54 37.9 °F /  3.3 °C 37.4 °F /  3 °C 30.1in /  1018.3hPa Calm     98% 0in /  0.0mm 0 W/m2
16:59 37.9 °F /  3.3 °C 37.4 °F /  3 °C 30.1in /  1018.3hPa Calm     98% 0in /  0.0mm 0 W/m2
17:04 37.9 °F /  3.3 °C 37.4 °F /  3 °C 30.1in /  1018.3hPa Calm     98% 0in /  0.0mm 0 W/m2
17:09 37.9 °F /  3.3 °C 37.4 °F /  3 °C 30.1in /  1018.3hPa Calm     98% 0in /  0.0mm 0 W/m2
17:14 37.9 °F /  3.3 °C 37.4 °F /  3 °C 30.1in /  1018.3hPa Calm     98% 0in /  0.0mm 0 W/m2
17:19 37.9 °F /  3.3 °C 37.4 °F /  3 °C 30.1in /  1018.3hPa Calm     98% 0in /  0.0mm 0 W/m2
17:24 37.9 °F /  3.3 °C 37.4 °F /  3 °C 30.1in /  1018.3hPa Calm     98% 0in /  0.0mm 0 W/m2
17:29 37.9 °F /  3.3 °C 37.4 °F /  3 °C 30.1in /  1018.3hPa Calm     98% 0in /  0.0mm 0 W/m2
17:34 37.9 °F /  3.3 °C 37.4 °F /  3 °C 30.1in /  1018.3hPa Calm     98% 0in /  0.0mm 0 W/m2
17:39 37.9 °F /  3.3 °C 37.4 °F /  3 °C 30.1in /  1018.3hPa Calm     98% 0in /  0.0mm 0 W/m2
17:44 37.9 °F /  3.3 °C 37.4 °F /  3 °C 30.1in /  1018.6hPa Calm     98% 0in /  0.0mm 0 W/m2
17:49 37.9 °F /  3.3 °C 37.4 °F /  3 °C 30.1in /  1018.6hPa Calm     98% 0in /  0.0mm 0 W/m2
17:54 37.8 °F /  3.2 °C 37.2 °F /  2.9 °C 30.1in /  1018.3hPa Calm     98% 0in /  0.0mm 0 W/m2
17:59 37.8 °F /  3.2 °C 37.2 °F /  2.9 °C 30.1in /  1018.3hPa Calm     98% 0in /  0.0mm 0 W/m2
18:04 37.8 °F /  3.2 °C 37 °F /  2.8 °C 30.1in /  1018.3hPa Calm     97% 0in /  0.0mm 0 W/m2
18:09 37.8 °F /  3.2 °C 37.2 °F /  2.9 °C 30.1in /  1018.3hPa Calm     98% 0in /  0.0mm 0 W/m2
18:14 37.8 °F /  3.2 °C 37.2 °F /  2.9 °C 30.1in /  1018.3hPa Calm     98% 0in /  0.0mm 0 W/m2
18:19 37.6 °F /  3.1 °C 37 °F /  2.8 °C 30.1in /  1018.3hPa Calm     98% 0in /  0.0mm 0 W/m2
18:24 37.4 °F /  3 °C 36.9 °F /  2.7 °C 30.1in /  1018.3hPa Calm     98% 0in /  0.0mm 0 W/m2
18:29 37.2 °F /  2.9 °C 36.5 °F /  2.5 °C 30.1in /  1018.3hPa Calm     97% 0in /  0.0mm 0 W/m2
18:34 37 °F /  2.8 °C 36.3 °F /  2.4 °C 30.1in /  1018.3hPa Calm     97% 0in /  0.0mm 0 W/m2
18:39 37 °F /  2.8 °C 36.3 °F /  2.4 °C 30.1in /  1018.3hPa Calm     97% 0in /  0.0mm 0 W/m2
18:44 36.9 °F /  2.7 °C 36.1 °F /  2.3 °C 30.1in /  1018.3hPa Calm     97% 0in /  0.0mm 0 W/m2
18:49 36.7 °F /  2.6 °C 36 °F /  2.2 °C 30.1in /  1018.3hPa Calm     97% 0in /  0.0mm 0 W/m2
18:54 36.7 °F /  2.6 °C 36 °F /  2.2 °C 30.1in /  1018.3hPa Calm     97% 0in /  0.0mm 0 W/m2
18:59 36.5 °F /  2.5 °C 35.8 °F /  2.1 °C 30.1in /  1018.3hPa Calm     97% 0in /  0.0mm 0 W/m2
19:04 36.3 °F /  2.4 °C 35.6 °F /  2 °C 30.1in /  1018.3hPa Calm     97% 0in /  0.0mm 0 W/m2
19:09 36.3 °F /  2.4 °C 35.6 °F /  2 °C 30.1in /  1018.3hPa Calm     97% 0in /  0.0mm 0 W/m2
19:14 36.1 °F /  2.3 °C 35.4 °F /  1.9 °C 30.1in /  1018.3hPa Calm     97% 0in /  0.0mm 0 W/m2
19:19 36.1 °F /  2.3 °C 35.4 °F /  1.9 °C 30.1in /  1018.3hPa Calm     97% 0in /  0.0mm 0 W/m2
19:24 36.1 °F /  2.3 °C 35.4 °F /  1.9 °C 30.1in /  1018.3hPa Calm     97% 0in /  0.0mm 0 W/m2
19:29 36.1 °F /  2.3 °C 35.4 °F /  1.9 °C 30.1in /  1018.3hPa Calm     97% 0in /  0.0mm 0 W/m2
19:34 36 °F /  2.2 °C 35.2 °F /  1.8 °C 30.1in /  1018.3hPa Calm     97% 0in /  0.0mm 0 W/m2
19:39 36 °F /  2.2 °C 35.2 °F /  1.8 °C 30.1in /  1018.3hPa Calm     97% 0in /  0.0mm 0 W/m2
19:44 36 °F /  2.2 °C 35.2 °F /  1.8 °C 30.1in /  1018.3hPa Calm     97% 0in /  0.0mm 0 W/m2
19:49 36 °F /  2.2 °C 35.2 °F /  1.8 °C 30.1in /  1018.3hPa Calm     97% 0in /  0.0mm 0 W/m2
19:54 36 °F /  2.2 °C 35.2 °F /  1.8 °C 30.1in /  1018.3hPa Calm     97% 0in /  0.0mm 0 W/m2
19:59 36 °F /  2.2 °C 35.2 °F /  1.8 °C 30.1in /  1018.3hPa Calm     97% 0in /  0.0mm 0 W/m2
20:04 36 °F /  2.2 °C 35.2 °F /  1.8 °C 30.1in /  1018.6hPa Calm     97% 0in /  0.0mm 0 W/m2
20:10 36 °F /  2.2 °C 35.2 °F /  1.8 °C 30.1in /  1018.6hPa Calm     97% 0in /  0.0mm 0 W/m2
20:15 36 °F /  2.2 °C 35.2 °F /  1.8 °C 30.1in /  1018.6hPa Calm     97% 0in /  0.0mm 0 W/m2
20:20 36 °F /  2.2 °C 35.2 °F /  1.8 °C 30.1in /  1018.6hPa Calm     97% 0in /  0.0mm 0 W/m2
20:25 36.1 °F /  2.3 °C 35.4 °F /  1.9 °C 30.1in /  1018.3hPa Calm   1mph /  1.6km/h 97% 0in /  0.0mm 0 W/m2
20:30 36.1 °F /  2.3 °C 35.4 °F /  1.9 °C 30.1in /  1018.6hPa Calm     97% 0in /  0.0mm 0 W/m2
20:35 36.1 °F /  2.3 °C 35.4 °F /  1.9 °C 30.1in /  1018.6hPa Calm   2mph /  3.2km/h 97% 0in /  0.0mm 0 W/m2
20:40 36.1 °F /  2.3 °C 35.4 °F /  1.9 °C 30.1in /  1018.6hPa Calm     97% 0in /  0.0mm 0 W/m2
20:45 36.1 °F /  2.3 °C 35.4 °F /  1.9 °C 30.1in /  1018.6hPa Calm   2mph /  3.2km/h 97% 0in /  0.0mm 0 W/m2
20:50 36.1 °F /  2.3 °C 35.4 °F /  1.9 °C 30.1in /  1018.6hPa Calm     97% 0in /  0.0mm 0 W/m2
20:55 36.1 °F /  2.3 °C 35.4 °F /  1.9 °C 30.1in /  1018.6hPa Calm     97% 0in /  0.0mm 0 W/m2
21:00 36.1 °F /  2.3 °C 35.4 °F /  1.9 °C 30.1in /  1018.6hPa Calm     97% 0in /  0.0mm 0 W/m2
21:05 36.1 °F /  2.3 °C 35.4 °F /  1.9 °C 30.1in /  1018.6hPa Calm     97% 0in /  0.0mm 0 W/m2
21:10 36.3 °F /  2.4 °C 35.8 °F /  2.1 °C 30.1in /  1018.6hPa Calm     98% 0in /  0.0mm 0 W/m2
21:15 36.7 °F /  2.6 °C 36.1 °F /  2.3 °C 30.1in /  1018.6hPa Calm     98% 0in /  0.0mm 0 W/m2
21:20 36.7 °F /  2.6 °C 36.1 °F /  2.3 °C 30.1in /  1018.6hPa Calm     98% 0in /  0.0mm 0 W/m2
21:25 36.7 °F /  2.6 °C 36.1 °F /  2.3 °C 30.1in /  1018.6hPa Calm     98% 0in /  0.0mm 0 W/m2
21:30 36.9 °F /  2.7 °C 36.3 °F /  2.4 °C 30.1in /  1018.6hPa Calm     98% 0in /  0.0mm 0 W/m2
21:35 36.9 °F /  2.7 °C 36.3 °F /  2.4 °C 30.1in /  1019.0hPa Calm     98% 0in /  0.0mm 0 W/m2
21:40 36.9 °F /  2.7 °C 36.3 °F /  2.4 °C 30.1in /  1019.0hPa Calm     98% 0in /  0.0mm 0 W/m2
21:45 37 °F /  2.8 °C 36.5 °F /  2.5 °C 30.1in /  1019.0hPa Calm     98% 0in /  0.0mm 0 W/m2
21:50 36.9 °F /  2.7 °C 36.3 °F /  2.4 °C 30.1in /  1019.0hPa Calm     98% 0in /  0.0mm 0 W/m2
21:55 36.9 °F /  2.7 °C 36.3 °F /  2.4 °C 30.1in /  1019.0hPa Calm     98% 0in /  0.0mm 0 W/m2
22:00 36.9 °F /  2.7 °C 36.3 °F /  2.4 °C 30.1in /  1019.0hPa Calm     98% 0in /  0.0mm 0 W/m2
22:05 36.9 °F /  2.7 °C 36.3 °F /  2.4 °C 30.1in /  1019.0hPa Calm     98% 0in /  0.0mm 0 W/m2
22:10 36.9 °F /  2.7 °C 36.3 °F /  2.4 °C 30.1in /  1019.0hPa Calm     98% 0in /  0.0mm 0 W/m2
22:15 36.9 °F /  2.7 °C 36.3 °F /  2.4 °C 30.1in /  1019.0hPa Calm     98% 0in /  0.0mm 0 W/m2
22:20 36.9 °F /  2.7 °C 36.3 °F /  2.4 °C 30.1in /  1019.0hPa Calm     98% 0in /  0.0mm 0 W/m2
22:25 36.9 °F /  2.7 °C 36.3 °F /  2.4 °C 30.1in /  1019.0hPa Calm     98% 0in /  0.0mm 0 W/m2
22:30 36.9 °F /  2.7 °C 36.1 °F /  2.3 °C 30.1in /  1019.0hPa Calm     97% 0in /  0.0mm 0 W/m2
22:35 36.9 °F /  2.7 °C 36.1 °F /  2.3 °C 30.1in /  1019.0hPa Calm     97% 0in /  0.0mm 0 W/m2
22:40 36.9 °F /  2.7 °C 36.1 °F /  2.3 °C 30.1in /  1019.0hPa Calm   2mph /  3.2km/h 97% 0in /  0.0mm 0 W/m2
22:45 36.9 °F /  2.7 °C 36.1 °F /  2.3 °C 30.1in /  1019.0hPa ENE 0.9mph /  1.4km/h 2mph /  3.2km/h 97% 0in /  0.0mm 0 W/m2
22:50 36.9 °F /  2.7 °C 36.1 °F /  2.3 °C 30.1in /  1019.0hPa Calm     97% 0in /  0.0mm 0 W/m2
22:55 36.9 °F /  2.7 °C 36.1 °F /  2.3 °C 30.1in /  1019.0hPa Calm   1mph /  1.6km/h 97% 0in /  0.0mm 0 W/m2
23:00 36.9 °F /  2.7 °C 36.1 °F /  2.3 °C 30.1in /  1019.0hPa Calm   1mph /  1.6km/h 97% 0in /  0.0mm 0 W/m2
23:05 36.7 °F /  2.6 °C 36 °F /  2.2 °C 30.1in /  1019.0hPa Calm     97% 0in /  0.0mm 0 W/m2
23:10 36.7 °F /  2.6 °C 36 °F /  2.2 °C 30.1in /  1019.0hPa Calm   1mph /  1.6km/h 97% 0in /  0.0mm 0 W/m2
23:15 36.7 °F /  2.6 °C 36.1 °F /  2.3 °C 30.1in /  1019.0hPa Calm     98% 0in /  0.0mm 0 W/m2
23:20 36.5 °F /  2.5 °C 36 °F /  2.2 °C 30.1in /  1019.0hPa Calm   1mph /  1.6km/h 98% 0in /  0.0mm 0 W/m2
23:25 36.5 °F /  2.5 °C 36 °F /  2.2 °C 30.1in /  1019.0hPa Calm     98% 0in /  0.0mm 0 W/m2
23:30 36.3 °F /  2.4 °C 35.6 °F /  2 °C 30.1in /  1019.0hPa Calm     97% 0in /  0.0mm 0 W/m2
23:35 36.1 °F /  2.3 °C 35.4 °F /  1.9 °C 30.1in /  1019.0hPa Calm     97% 0in /  0.0mm 0 W/m2
23:40 36.1 °F /  2.3 °C 35.4 °F /  1.9 °C 30.1in /  1019.0hPa Calm     97% 0in /  0.0mm 0 W/m2
23:45 36 °F /  2.2 °C 35.2 °F /  1.8 °C 30.1in /  1019.0hPa Calm     97% 0in /  0.0mm 0 W/m2
23:50 35.8 °F /  2.1 °C 35.1 °F /  1.7 °C 30.1in /  1019.0hPa Calm     97% 0in /  0.0mm 0 W/m2
23:55 35.6 °F /  2 °C 34.9 °F /  1.6 °C 30.1in /  1019.0hPa Calm     97% 0in /  0.0mm 0 W/m2
Juneau County Weather
Compliments of Weather Underground - 4 mb